Middletown Township, Pennsylvania
Current Conditions -  °F | °C
As of 9:54 AM on Friday 24 Oct 2014 (Local Time) from KPNE Reporting Station
Few Clouds Few Clouds  
Wind Chill: 60°   Ceiling: Unl
Heat Index: 60°   Visibility: 10mi
Dew Point: 41°   Wind: 17mph
Humidity: 49%   Direction: 360°N
Pressure: 29.88"   Gusts: 26mph
Location:  40.1547°N, 74.8824°W
Report Text: KPNE 241354Z 36015G23KT 10SM FEW037 16/05 A2988 RMK AO2 SLP118 T01560050
Loading
Personal Weather Stations






























Interactive Weather Map
Tropical Storm Tracking
New forecast layout! Learn more

10-Day Weather Forecast

Advertisements
Track Severe Weather on mobile